• Join FlightAware (Why Join?)
  • Login
  • US Flag 
05:55AM EDT


 

Airport Tracker/Info


-or-


 

Live Flight TrackerFlight Track Log ✈ LOF3416 ✈ 20-Jul-2013 ✈ KROC - KORD

Flight Track Log - Related Links

Times and Time Zones

All times are in EDT time to prevent confusion due to time zone crossing. See the LOF3416 flight status page for this flight to view local times or setup timezone preferences in your user account.

Time Position Orientation Groundspeed Altitude Reporting Facility
EDT Latitude Longitude Course Direction KTS MPH feet Rate Location/Type
06:51PM 43.0933 -77.6975 281° West 169 194 1,200  Level Cleveland Center
06:52PM 43.0647 -77.7244 215° Southwest 180 207 2,600 1,740 Climbing Cleveland Center
06:53PM 43.0772 -77.8092 281° West 192 221 4,700 1,860 Climbing Cleveland Center
06:54PM 43.1559 -78.0918 278° West  Level FlightAware Approximate
06:54PM 43.0939 -77.8992 284° West 203 234 6,900  Level Cleveland Center
06:55PM 43.1665 -78.1987 278° West  Level FlightAware Approximate
06:55PM 43.1128 -77.9922 286° West 236 272 9,300  Level Cleveland Center
06:56PM 43.1817 -78.3046 281° West  Level FlightAware Approximate
06:56PM 43.1336 -78.0853 287° West 257 296 11,100  Level Cleveland Center
06:57PM 43.1525 -78.1900 284° West 269 310 12,400 1,440 Climbing Cleveland Center
06:58PM 43.1733 -78.3003 285° West 295 339 14,000 1,440 Climbing Cleveland Center
06:59PM 43.1942 -78.4019 286° West 302 348 15,300 1,260 Climbing Cleveland Center
07:00PM 43.2067 -78.5211 278° West 308 354 16,600 1,200 Climbing Cleveland Center
07:01PM 43.2025 -78.6408 267° West 308 354 17,700 1,380 Climbing Cleveland Center
07:02PM 43.1942 -78.7608 265° West 313 360 19,400 1,920 Climbing Cleveland Center
07:03PM 43.1875 -78.8750 265° West 313 360 21,600 1,800 Climbing Cleveland Center
07:04PM 43.1667 -79.0000 257° West 280 322 23,300 1,380 Climbing Toronto Center
07:05PM 43.1667 -79.0833 270° West 280 322 24,600 1,320 Climbing Toronto Center
07:06PM 43.1667 -79.2000 270° West 280 322 26,000 1,380 Climbing Toronto Center
07:07PM 43.1500 -79.2833 255° West 270 311 27,400 1,320 Climbing Toronto Center
07:08PM 43.1500 -79.4000 270° West 270 311 28,700 1,500 Climbing Toronto Center
07:09PM 43.1333 -79.5000 257° West 270 311 30,400 1,560 Climbing Toronto Center
07:10PM 43.1333 -79.5833 270° West 250 288 31,900 1,260 Climbing Toronto Center
07:11PM 43.1333 -79.7000 270° West 250 288 33,000 1,140 Climbing Toronto Center
07:12PM 43.1167 -79.8000 257° West 240 276 34,200 1,080 Climbing Toronto Center
07:13PM 43.1167 -79.8833 270° West 230 265 35,200 900 Climbing Toronto Center
07:14PM 43.1167 -79.9500 270° West 230 265 36,000 360 Climbing Toronto Center
07:15PM 43.1000 -80.0500 257° West 240 276 36,000  Level Toronto Center
07:16PM 43.1000 -80.1500 270° West 260 299 36,000  Level Toronto Center
07:17PM 43.1000 -80.2500 270° West 280 322 36,000  Level Toronto Center
07:18PM 43.0833 -80.3833 260° West 300 345 36,000  Level Toronto Center
07:19PM 43.0833 -80.5000 270° West 320 368 36,000  Level Toronto Center
07:20PM 43.0667 -80.6333 260° West 340 391 36,000  Level Toronto Center
07:21PM 43.0667 -80.7500 270° West 340 391 36,000  Level Toronto Center
07:22PM 43.0333 -80.8833 251° West 340 391 36,000  Level Toronto Center
07:23PM 43.0333 -81.0167 270° West 350 403 36,000  Level Toronto Center
07:24PM 43.0167 -81.1333 259° West 350 403 36,000  Level Toronto Center
07:25PM 43.0167 -81.2667 270° West 350 403 36,000  Level Toronto Center
07:26PM 43.0167 -81.4167 270° West 350 403 36,000  Level Toronto Center
07:27PM 43.0167 -81.5500 270° West 350 403 36,000  Level Toronto Center
07:28PM 43.0167 -81.6833 270° West 340 391 36,000  Level Toronto Center
07:29PM 43.0167 -81.8000 270° West 340 391 36,000  Level Toronto Center
07:30PM 43.0000 -81.9333 260° West 340 391 36,000  Level Toronto Center
07:31PM 43.0000 -82.0500 270° West 340 391 36,000  Level Toronto Center
07:32PM 43.0000 -82.1833 270° West 340 391 36,000  Level Toronto Center
07:33PM 43.0000 -82.3167 270° West 340 391 36,000  Level Toronto Center
07:34PM 43.0000 -82.4667 270° West 340 391 36,000  Level Toronto Center
07:35PM 43.0000 -82.5667 270° West 340 391 36,000  Level Toronto Center
07:36PM 43.0006 -82.7519 270° West 346 398 36,000  Level Cleveland Center
07:37PM 42.9958 -82.8797 267° West 346 398 36,000  Level Cleveland Center
07:38PM 42.9911 -83.0072 267° West 346 398 36,000  Level Cleveland Center
07:39PM 42.9883 -83.1406 268° West 346 398 36,000 -480 Level Cleveland Center
07:40PM 42.9833 -83.2653 267° West 346 398 35,100 -960 Descending Cleveland Center
07:41PM 42.9783 -83.3956 267° West 346 398 34,100 -1,020 Descending Cleveland Center
07:42PM 42.9747 -83.5317 268° West 346 398 33,100 -1,020 Descending Cleveland Center
07:43PM 42.9692 -83.6703 267° West 358 412 32,100 -600 Descending Cleveland Center
07:44PM 42.9611 -83.8061 265° West 364 419 32,000 -60 Descending Cleveland Center
07:45PM 42.9469 -83.9389 262° West 364 419 32,000  Level Cleveland Center
07:46PM 42.9347 -84.0714 263° West 364 419 32,000  Level Cleveland Center
07:47PM 42.9247 -84.1781 263° West 353 406 32,000 -360 Level Chicago Center
07:48PM 42.9119 -84.3086 262° West 350 403 31,400 -900 Descending Chicago Center
07:49PM 42.8981 -84.4450 262° West 361 415 30,200 -720 Descending Chicago Center
07:50PM 42.8836 -84.5831 262° West 366 421 30,000 -120 Descending Chicago Center
07:51PM 42.8708 -84.7194 263° West 365 420 30,000  Level Chicago Center
07:52PM 42.8561 -84.8567 262° West 366 421 30,000  Level Chicago Center
07:53PM 42.8411 -84.9936 262° West 367 422 30,000 -60 Level Chicago Center
07:54PM 42.8269 -85.1303 262° West 367 422 29,900 -660 Descending Chicago Center
07:55PM 42.8086 -85.2961 261° West 369 425 28,700 -1,080 Descending Chicago Center
07:56PM 42.7925 -85.4419 261° West 382 440 27,700 -1,020 Descending Chicago Center
07:57PM 42.7694 -85.5914 258° West 401 461 26,700 -1,560 Descending Chicago Center
07:58PM 42.7444 -85.7333 257° West 388 447 24,600 -2,220 Descending Chicago Center
07:59PM 42.7206 -85.8653 256° West 362 417 22,200 -1,920 Descending Chicago Center
08:00PM 42.6947 -86.0036 256° West 371 427 20,600 -1,080 Descending Chicago Center
08:02PM 42.6706 -86.1394 256° West 370 426 20,000 -420 Descending Chicago Center
08:03PM 42.6422 -86.2947 256° West 355 409 19,800 -960 Descending Chicago Center
08:04PM 42.6158 -86.4275 255° West 360 414 18,100 -1,800 Descending Chicago Center
08:05PM 42.5917 -86.5586 256° West 357 411 16,200 -1,860 Descending Chicago Center
08:06PM 42.5656 -86.6950 255° West 369 425 14,400 -1,680 Descending Chicago Center
08:07PM 42.5347 -86.8303 253° West 375 432 12,800 -1,320 Descending Chicago Center
08:08PM 42.5011 -86.9494 249° West 347 399 11,700 -960 Descending Chicago Center
08:09PM 42.4711 -87.0514 248° West 299 344 10,900 -780 Descending Chicago Center
08:10PM 42.4372 -87.1731 249° West 289 333 10,100 -480 Descending Chicago Center
08:11PM 42.4106 -87.2731 250° West 283 326 10,000 -60 Descending Chicago Center
08:12PM 42.3833 -87.3717 250° West 283 326 10,000  Level Chicago Center
08:13PM 42.3556 -87.4742 250° West 281 323 10,000  Level Chicago Center
08:14PM 42.3133 -87.5631 237° Southwest 293 337 10,000  Level Chicago Center
08:15PM 42.2486 -87.6317 218° Southwest 299 344 10,000  Level Chicago Center
08:16PM 42.1842 -87.6997 218° Southwest 298 343 10,000 -840 Level Chicago Center
08:17PM 42.1089 -87.7775 217° Southwest 288 331 8,300 -1,500 Descending Chicago Center
08:18PM 42.0914 -87.8706 256° West 267 307 7,000 -660 Descending Chicago Center
08:19PM 42.0869 -87.9706 267° West 270 311 7,000 -300 Level Chicago Center
08:20PM 42.0769 -88.0694 262° West 270 311 6,500 -1,080 Descending Chicago Center
08:21PM 42.0672 -88.1664 262° West 267 307 4,900 -1,200 Descending Chicago Center
08:22PM 42.0547 -88.2503 259° West 251 289 4,100 -420 Descending Chicago Center
08:23PM 41.9931 -88.2450 176° South 200 230 4,100  Level Chicago Center
08:24PM 41.9700 -88.1772 115° Southeast 204 235 4,100  Level Chicago Center